createdAt,value
2023-04-28T00:01:45.762Z,9.40
2023-04-28T00:04:13.178Z,9.00
2023-04-28T00:06:41.155Z,9.20
2023-04-28T00:09:12.014Z,8.47
2023-04-28T00:11:39.157Z,9.03
2023-04-28T00:14:06.417Z,8.60
2023-04-28T00:16:33.635Z,8.10
2023-04-28T00:19:00.920Z,9.47
2023-04-28T00:21:28.744Z,8.17
2023-04-28T00:23:56.049Z,8.00
2023-04-28T00:26:23.205Z,8.20
2023-04-28T00:28:50.401Z,7.73
2023-04-28T00:31:17.621Z,7.90
2023-04-28T00:33:45.076Z,7.80
2023-04-28T00:36:12.306Z,7.67
2023-04-28T00:38:39.520Z,7.93
2023-04-28T00:41:06.741Z,7.30
2023-04-28T00:43:44.755Z,7.20
2023-04-28T00:46:13.451Z,7.40
2023-04-28T00:48:40.663Z,7.17
2023-04-28T00:51:08.540Z,7.77
2023-04-28T00:53:35.644Z,8.33
2023-04-28T00:56:02.792Z,7.50
2023-04-28T00:58:31.136Z,7.37
2023-04-28T01:01:04.952Z,8.37
2023-04-28T01:03:34.716Z,7.47
2023-04-28T01:06:02.390Z,7.67
2023-04-28T01:08:31.178Z,7.03
2023-04-28T01:10:58.531Z,7.00
2023-04-28T01:13:26.387Z,7.03
2023-04-28T01:15:53.612Z,6.97
2023-04-28T01:18:20.725Z,6.07
2023-04-28T01:20:47.875Z,6.43
2023-04-28T01:23:18.235Z,6.10
2023-04-28T01:25:45.572Z,6.03
2023-04-28T01:28:12.873Z,5.97
2023-04-28T01:30:40.012Z,6.07
2023-04-28T01:33:07.213Z,6.00
2023-04-28T01:35:34.357Z,6.80
2023-04-28T01:38:02.069Z,6.37
2023-04-28T01:40:29.257Z,5.97
2023-04-28T01:42:56.438Z,5.87
2023-04-28T01:45:23.590Z,6.13
2023-04-28T01:47:50.844Z,6.20
2023-04-28T01:50:18.025Z,6.33
2023-04-28T01:52:45.299Z,6.10
2023-04-28T01:55:12.420Z,6.57
2023-04-28T01:57:39.604Z,6.33
2023-04-28T02:00:07.030Z,6.60
2023-04-28T02:02:34.244Z,6.73
2023-04-28T02:05:01.806Z,6.90
2023-04-28T02:07:28.965Z,6.17
2023-04-28T02:09:56.106Z,6.67
2023-04-28T02:12:23.292Z,6.67
2023-04-28T02:14:51.290Z,6.27
2023-04-28T02:17:18.444Z,6.50
2023-04-28T02:19:45.716Z,6.07
2023-04-28T02:22:12.867Z,6.50
2023-04-28T02:24:40.031Z,6.03
2023-04-28T02:27:07.157Z,6.33
2023-04-28T02:29:34.349Z,6.23
2023-04-28T02:32:01.625Z,6.20
2023-04-28T02:34:28.767Z,5.97
2023-04-28T02:36:55.836Z,6.37
2023-04-28T02:39:25.418Z,6.23
2023-04-28T02:41:52.564Z,6.40
2023-04-28T02:44:19.722Z,6.07
2023-04-28T02:46:47.004Z,6.40
2023-04-28T02:49:14.204Z,6.50
2023-04-28T02:51:41.322Z,6.70
2023-04-28T02:54:08.893Z,6.77
2023-04-28T02:56:37.060Z,6.23
2023-04-28T02:59:04.285Z,6.90
2023-04-28T03:01:31.482Z,6.40
2023-04-28T03:03:58.809Z,6.47
2023-04-28T03:06:26.584Z,7.20
2023-04-28T03:08:53.714Z,6.97
2023-04-28T03:11:20.820Z,7.13
2023-04-28T03:13:47.932Z,6.90
2023-04-28T03:16:15.139Z,6.17
2023-04-28T03:18:42.348Z,6.47
2023-04-28T03:21:09.591Z,6.20
2023-04-28T03:23:36.964Z,6.33
2023-04-28T03:26:04.180Z,6.20
2023-04-28T03:28:31.364Z,6.17
2023-04-28T03:30:58.635Z,6.40
2023-04-28T03:33:25.933Z,5.90
2023-04-28T03:35:53.634Z,5.90
2023-04-28T03:38:20.883Z,6.90
2023-04-28T03:40:47.999Z,6.80
2023-04-28T03:43:15.148Z,7.30
2023-04-28T03:45:42.345Z,7.37
2023-04-28T03:48:09.617Z,7.13
2023-04-28T03:50:36.884Z,7.10
2023-04-28T03:53:05.084Z,7.23
2023-04-28T03:55:32.262Z,7.33
2023-04-28T03:57:59.391Z,7.60
2023-04-28T04:00:26.558Z,7.43
2023-04-28T04:02:53.809Z,9.03
2023-04-28T04:05:21.155Z,9.10
2023-04-28T04:07:48.402Z,9.80
2023-04-28T04:10:15.811Z,11.13
2023-04-28T04:12:42.962Z,11.50
2023-04-28T04:15:10.281Z,10.47
2023-04-28T04:17:37.395Z,11.00
2023-04-28T04:20:04.627Z,10.47
2023-04-28T04:22:31.744Z,10.57
2023-04-28T04:24:59.010Z,10.90
2023-04-28T04:27:26.228Z,11.40
2023-04-28T04:29:53.348Z,11.20
2023-04-28T04:32:20.488Z,10.93
2023-04-28T04:34:47.728Z,10.30
2023-04-28T04:37:14.895Z,10.47
2023-04-28T04:39:42.038Z,11.00
2023-04-28T04:42:23.206Z,11.07
2023-04-28T04:44:52.341Z,11.00
2023-04-28T04:47:19.697Z,11.00
2023-04-28T04:49:46.800Z,11.40
2023-04-28T04:52:13.959Z,11.00
2023-04-28T04:54:41.167Z,11.20
2023-04-28T04:57:08.669Z,11.37
2023-04-28T04:59:35.952Z,11.30
2023-04-28T05:02:03.158Z,11.93
2023-04-28T05:04:30.628Z,12.20
2023-04-28T05:06:57.916Z,11.20
2023-04-28T05:09:25.063Z,11.37
2023-04-28T05:11:52.305Z,11.23
2023-04-28T05:14:19.412Z,12.47
2023-04-28T05:16:46.781Z,11.93
2023-04-28T05:19:13.997Z,11.90
2023-04-28T05:21:41.260Z,12.97
2023-04-28T05:24:08.473Z,12.67
2023-04-28T05:26:36.684Z,12.40
2023-04-28T05:29:03.831Z,12.70
2023-04-28T05:31:31.019Z,11.77
2023-04-28T05:33:58.921Z,11.57
2023-04-28T05:36:26.739Z,11.40
2023-04-28T05:38:53.898Z,11.40
2023-04-28T05:41:21.253Z,11.80
2023-04-28T05:43:51.080Z,11.83
2023-04-28T05:46:30.200Z,11.77
2023-04-28T05:48:58.315Z,11.57
2023-04-28T05:51:25.709Z,11.63
2023-04-28T05:53:52.796Z,12.73
2023-04-28T05:56:20.009Z,12.40
2023-04-28T05:58:50.859Z,11.80
2023-04-28T06:01:18.208Z,13.10
2023-04-28T06:03:45.707Z,14.23
2023-04-28T06:06:13.659Z,14.27
2023-04-28T06:08:41.321Z,13.60
2023-04-28T06:11:08.494Z,14.43
2023-04-28T06:13:35.595Z,14.27
2023-04-28T06:16:02.831Z,17.47
2023-04-28T06:18:32.866Z,19.63
2023-04-28T06:21:00.234Z,18.33
2023-04-28T06:23:27.452Z,19.87
2023-04-28T06:25:54.705Z,28.57
2023-04-28T06:28:21.870Z,41.80
2023-04-28T06:30:49.058Z,25.03
2023-04-28T06:33:16.279Z,25.30
2023-04-28T06:35:43.447Z,58.70
2023-04-28T06:38:10.609Z,116.97
2023-04-28T06:40:37.754Z,130.40
2023-04-28T06:43:05.739Z,143.30
2023-04-28T06:45:32.908Z,106.00
2023-04-28T06:48:00.188Z,97.83
2023-04-28T06:50:27.394Z,24.80
2023-04-28T06:52:54.600Z,75.27
2023-04-28T06:55:21.861Z,77.83
2023-04-28T06:57:49.045Z,34.67
2023-04-28T07:00:16.355Z,46.10
2023-04-28T07:02:43.651Z,40.63
2023-04-28T07:05:10.942Z,73.50
2023-04-28T07:07:41.243Z,63.07
2023-04-28T07:10:08.690Z,220.50
2023-04-28T07:12:35.887Z,59.37
2023-04-28T07:15:03.018Z,42.80
2023-04-28T07:17:30.150Z,33.50
2023-04-28T07:19:57.347Z,20.47
2023-04-28T07:22:24.579Z,20.80
2023-04-28T07:24:51.895Z,21.20
2023-04-28T07:27:19.103Z,19.93
2023-04-28T07:29:46.251Z,20.53
2023-04-28T07:32:13.461Z,17.67
2023-04-28T07:34:40.746Z,19.07
2023-04-28T07:37:08.157Z,18.03
2023-04-28T07:39:35.498Z,18.37
2023-04-28T07:42:03.483Z,18.90
2023-04-28T07:44:31.187Z,18.53
2023-04-28T07:46:58.506Z,19.07
2023-04-28T07:49:25.730Z,19.03
2023-04-28T07:51:54.916Z,18.93
2023-04-28T07:54:22.154Z,19.40
2023-04-28T07:56:49.438Z,18.47
2023-04-28T07:59:16.597Z,18.73
2023-04-28T08:01:43.782Z,18.80
2023-04-28T08:04:11.837Z,18.30
2023-04-28T08:06:40.226Z,20.43
2023-04-28T08:09:07.596Z,18.70
2023-04-28T08:11:34.857Z,18.33
2023-04-28T08:14:03.390Z,19.97
2023-04-28T08:16:31.472Z,20.50
2023-04-28T08:18:59.846Z,18.67
2023-04-28T08:21:27.271Z,20.47
2023-04-28T08:23:54.529Z,20.60
2023-04-28T08:26:21.786Z,21.30
2023-04-28T08:28:48.928Z,20.87
2023-04-28T08:31:16.072Z,20.70
2023-04-28T08:33:48.654Z,19.83
2023-04-28T08:36:15.906Z,20.37
2023-04-28T08:38:43.727Z,18.70
2023-04-28T08:41:11.013Z,19.57
2023-04-28T08:43:40.504Z,19.87
2023-04-28T08:46:08.288Z,18.77
2023-04-28T08:48:41.140Z,18.47
2023-04-28T08:51:08.596Z,19.53
2023-04-28T08:53:59.208Z,17.80
2023-04-28T08:56:28.019Z,18.80
2023-04-28T08:58:55.656Z,18.17
2023-04-28T09:01:23.840Z,19.17
2023-04-28T09:03:51.246Z,21.13
2023-04-28T09:06:18.558Z,19.33
2023-04-28T09:08:45.700Z,20.83
2023-04-28T09:11:13.753Z,21.37
2023-04-28T09:13:41.732Z,21.73
2023-04-28T09:16:09.062Z,22.33
2023-04-28T09:18:36.305Z,22.33
2023-04-28T09:21:13.372Z,22.67
2023-04-28T09:23:50.767Z,23.10
2023-04-28T09:26:18.392Z,25.67
2023-04-28T09:28:45.558Z,27.93
2023-04-28T09:31:25.619Z,30.43
2023-04-28T09:33:59.795Z,29.83
2023-04-28T09:36:29.650Z,27.00
2023-04-28T09:39:00.407Z,28.97
2023-04-28T09:41:40.560Z,31.13
2023-04-28T09:44:11.578Z,33.67
2023-04-28T09:46:39.101Z,30.30
2023-04-28T09:49:06.213Z,30.27
2023-04-28T09:51:34.662Z,29.83
2023-04-28T09:54:02.811Z,27.03
2023-04-28T09:56:30.971Z,27.33
2023-04-28T09:59:01.908Z,27.17
2023-04-28T10:01:41.040Z,25.43
2023-04-28T10:04:08.643Z,25.27
2023-04-28T10:06:36.895Z,25.67
2023-04-28T10:09:04.377Z,25.83
2023-04-28T10:11:33.396Z,26.33
2023-04-28T10:14:00.559Z,25.33
2023-04-28T10:16:30.155Z,26.27
2023-04-28T10:18:57.376Z,27.00
2023-04-28T10:21:25.742Z,25.67
2023-04-28T10:24:19.306Z,25.50
2023-04-28T10:26:55.750Z,25.60
2023-04-28T10:29:26.417Z,24.57
2023-04-28T10:32:28.588Z,24.03
2023-04-28T10:35:16.099Z,24.50
2023-04-28T10:38:01.856Z,23.40
2023-04-28T10:40:32.036Z,23.00
2023-04-28T10:42:59.249Z,23.20
2023-04-28T10:45:45.110Z,22.53
2023-04-28T10:48:12.220Z,21.10
2023-04-28T10:50:46.353Z,22.13
2023-04-28T10:53:13.449Z,21.23
2023-04-28T10:55:40.825Z,20.67
2023-04-28T10:58:19.805Z,19.90
2023-04-28T11:00:51.523Z,19.17
2023-04-28T11:03:37.315Z,19.90
2023-04-28T11:06:26.890Z,19.90
2023-04-28T11:08:55.730Z,20.10
2023-04-28T11:11:25.689Z,20.10
2023-04-28T11:13:54.286Z,21.00
2023-04-28T11:16:23.027Z,20.37
2023-04-28T11:19:06.198Z,20.63
2023-04-28T11:21:33.775Z,19.87
2023-04-28T11:24:01.462Z,19.70
2023-04-28T11:26:28.960Z,18.87
2023-04-28T11:28:57.312Z,16.73
2023-04-28T11:31:25.989Z,16.70
2023-04-28T11:34:01.002Z,16.60
2023-04-28T11:36:38.420Z,16.67
2023-04-28T11:39:07.808Z,16.50
2023-04-28T11:41:38.733Z,15.20
2023-04-28T11:44:16.316Z,15.27
2023-04-28T11:46:51.674Z,15.30
2023-04-28T11:49:19.754Z,14.70
2023-04-28T11:51:49.380Z,14.13
2023-04-28T11:54:21.025Z,16.10
2023-04-28T11:56:48.157Z,14.43
2023-04-28T11:59:15.283Z,13.85
2023-04-28T12:01:54.022Z,14.50
2023-04-28T12:04:30.600Z,13.88
2023-04-28T12:07:01.266Z,13.13
2023-04-28T12:09:28.451Z,12.88
2023-04-28T12:12:05.935Z,12.38
2023-04-28T12:14:36.507Z,12.52
2023-04-28T12:17:04.221Z,12.05
2023-04-28T12:19:31.442Z,12.75
2023-04-28T12:22:05.595Z,14.40
2023-04-28T12:24:33.016Z,13.90
2023-04-28T12:27:16.719Z,13.20
2023-04-28T12:29:46.290Z,14.00
2023-04-28T12:32:14.036Z,13.20
2023-04-28T12:34:42.199Z,12.82
2023-04-28T12:37:09.384Z,12.32
2023-04-28T12:39:39.694Z,12.70
2023-04-28T12:42:07.448Z,12.20
2023-04-28T12:44:35.780Z,13.07
2023-04-28T12:47:03.843Z,11.15
2023-04-28T12:49:31.268Z,9.18
2023-04-28T12:51:58.483Z,8.52
2023-04-28T12:54:25.745Z,8.07
2023-04-28T12:56:54.575Z,8.25
2023-04-28T12:59:22.238Z,8.40
2023-04-28T13:01:50.378Z,7.88
2023-04-28T13:04:18.544Z,8.52
2023-04-28T13:06:45.947Z,8.40
2023-04-28T13:09:13.604Z,8.73
2023-04-28T13:11:40.768Z,8.23
2023-04-28T13:14:07.966Z,8.35
2023-04-28T13:16:35.794Z,8.10
2023-04-28T13:19:04.212Z,8.52
2023-04-28T13:21:32.027Z,8.65
2023-04-28T13:23:59.196Z,8.43
2023-04-28T13:26:27.166Z,8.13
2023-04-28T13:28:54.303Z,7.25
2023-04-28T13:31:21.517Z,7.90
2023-04-28T13:33:48.793Z,7.30
2023-04-28T13:36:15.941Z,7.03
2023-04-28T13:38:46.055Z,6.30
2023-04-28T13:41:13.215Z,5.97
2023-04-28T13:43:40.291Z,5.68
2023-04-28T13:46:08.529Z,6.25
2023-04-28T13:48:40.027Z,5.82
2023-04-28T13:51:07.473Z,6.35
2023-04-28T13:53:35.168Z,6.68
2023-04-28T13:56:02.354Z,7.25
2023-04-28T13:58:29.842Z,6.90
2023-04-28T14:00:57.431Z,7.22
2023-04-28T14:03:25.279Z,6.70
2023-04-28T14:05:53.187Z,6.95
2023-04-28T14:08:20.951Z,7.22
2023-04-28T14:10:48.343Z,7.28
2023-04-28T14:13:16.145Z,7.38
2023-04-28T14:15:51.320Z,7.32
2023-04-28T14:18:24.742Z,7.57
2023-04-28T14:20:51.962Z,7.22
2023-04-28T14:23:19.102Z,7.25
2023-04-28T14:25:46.630Z,7.55
2023-04-28T14:28:13.829Z,7.70
2023-04-28T14:30:41.194Z,7.18
2023-04-28T14:33:08.473Z,6.93
2023-04-28T14:35:35.786Z,6.25
2023-04-28T14:38:03.761Z,4.32
2023-04-28T14:40:31.088Z,3.90
2023-04-28T14:42:58.311Z,3.28
2023-04-28T14:45:25.852Z,3.38
2023-04-28T14:47:53.060Z,3.28
2023-04-28T14:50:20.211Z,2.97
2023-04-28T14:52:47.330Z,3.70
2023-04-28T14:55:14.492Z,3.15
2023-04-28T14:57:42.057Z,3.08
2023-04-28T15:00:09.418Z,3.03
2023-04-28T15:02:36.848Z,2.60
2023-04-28T15:05:04.496Z,2.78
2023-04-28T15:07:33.052Z,2.63
2023-04-28T15:10:00.675Z,2.70
2023-04-28T15:12:30.529Z,3.03
2023-04-28T15:14:58.057Z,2.65
2023-04-28T15:17:25.459Z,2.72
2023-04-28T15:19:52.707Z,2.45
2023-04-28T15:22:19.946Z,3.25
2023-04-28T15:24:47.385Z,2.92
2023-04-28T15:27:14.870Z,2.20
2023-04-28T15:29:42.080Z,2.42
2023-04-28T15:32:09.537Z,2.10
2023-04-28T15:34:36.709Z,2.15
2023-04-28T15:37:23.776Z,2.00
2023-04-28T15:39:50.926Z,2.25
2023-04-28T15:42:18.155Z,2.28
2023-04-28T15:44:45.502Z,2.20
2023-04-28T15:47:12.628Z,2.13
2023-04-28T15:49:39.945Z,2.15
2023-04-28T15:52:07.059Z,2.22
2023-04-28T15:54:34.208Z,3.20
2023-04-28T15:57:01.660Z,4.45
2023-04-28T15:59:30.916Z,2.90
2023-04-28T16:01:58.164Z,1.95
2023-04-28T16:04:25.614Z,1.92
2023-04-28T16:06:53.014Z,1.77
2023-04-28T16:09:20.313Z,1.90
2023-04-28T16:11:47.591Z,1.95
2023-04-28T16:14:15.419Z,2.35
2023-04-28T16:16:42.659Z,1.60
2023-04-28T16:19:10.037Z,1.60
2023-04-28T16:21:37.178Z,1.45
2023-04-28T16:24:05.563Z,1.58
2023-04-28T16:26:32.738Z,1.48
2023-04-28T16:29:00.002Z,1.60
2023-04-28T16:31:27.264Z,1.85
2023-04-28T16:33:55.288Z,1.75
2023-04-28T16:36:24.987Z,1.70
2023-04-28T16:38:52.132Z,1.40
2023-04-28T16:41:19.447Z,1.60
2023-04-28T16:43:46.562Z,1.38
2023-04-28T16:46:13.739Z,1.50
2023-04-28T16:48:40.959Z,1.40
2023-04-28T16:51:10.423Z,1.40
2023-04-28T16:53:38.915Z,1.37
2023-04-28T16:56:08.435Z,1.60
2023-04-28T16:58:37.447Z,1.70
2023-04-28T17:01:04.661Z,1.50
2023-04-28T17:03:31.999Z,1.40
2023-04-28T17:05:59.628Z,1.50
2023-04-28T17:08:26.909Z,1.50
2023-04-28T17:10:54.060Z,1.30
2023-04-28T17:13:21.215Z,1.47
2023-04-28T17:15:54.464Z,1.60
2023-04-28T17:18:21.829Z,2.97
2023-04-28T17:20:48.977Z,2.00
2023-04-28T17:23:16.090Z,1.30
2023-04-28T17:25:43.213Z,1.53
2023-04-28T17:28:10.525Z,1.50
2023-04-28T17:30:37.708Z,1.27
2023-04-28T17:33:05.212Z,1.50
2023-04-28T17:35:32.392Z,1.40
2023-04-28T17:37:59.551Z,1.43
2023-04-28T17:40:27.912Z,1.53
2023-04-28T17:42:56.256Z,1.10
2023-04-28T17:45:23.384Z,1.30
2023-04-28T17:47:50.554Z,1.40
2023-04-28T17:50:17.754Z,1.37
2023-04-28T17:52:44.889Z,1.73
2023-04-28T17:55:13.070Z,2.43
2023-04-28T17:57:40.220Z,7.20
2023-04-28T18:00:07.565Z,3.20
2023-04-28T18:02:35.020Z,11.57
2023-04-28T18:05:02.425Z,3.73
2023-04-28T18:07:29.650Z,2.10
2023-04-28T18:09:57.295Z,2.07
2023-04-28T18:12:25.842Z,2.00
2023-04-28T18:14:54.048Z,3.00
2023-04-28T18:17:23.134Z,2.20
2023-04-28T18:19:52.306Z,2.30
2023-04-28T18:22:19.543Z,2.07
2023-04-28T18:24:48.579Z,2.27
2023-04-28T18:27:15.844Z,1.90
2023-04-28T18:29:42.974Z,2.00
2023-04-28T18:32:12.742Z,2.07
2023-04-28T18:34:41.546Z,2.07
2023-04-28T18:37:09.442Z,2.50
2023-04-28T18:39:36.929Z,2.83
2023-04-28T18:42:04.379Z,3.73
2023-04-28T18:44:31.804Z,5.77
2023-04-28T18:46:59.919Z,6.93
2023-04-28T18:49:27.258Z,4.90
2023-04-28T18:51:54.489Z,3.80
2023-04-28T18:54:21.576Z,2.93
2023-04-28T18:56:48.678Z,2.57
2023-04-28T18:59:15.808Z,6.13
2023-04-28T19:01:42.909Z,5.77
2023-04-28T19:04:10.161Z,3.00
2023-04-28T19:06:37.507Z,2.60
2023-04-28T19:09:04.664Z,4.33
2023-04-28T19:11:31.990Z,6.27
2023-04-28T19:13:59.173Z,5.73
2023-04-28T19:16:26.422Z,3.40
2023-04-28T19:18:53.660Z,5.63
2023-04-28T19:21:20.801Z,5.07
2023-04-28T19:23:48.589Z,4.67
2023-04-28T19:26:15.766Z,6.17
2023-04-28T19:28:43.187Z,5.33
2023-04-28T19:31:10.971Z,5.83
2023-04-28T19:33:38.133Z,5.53
2023-04-28T19:36:07.518Z,5.20
2023-04-28T19:38:35.427Z,6.97
2023-04-28T19:41:02.638Z,9.40
2023-04-28T19:43:30.696Z,7.50
2023-04-28T19:45:58.158Z,12.90
2023-04-28T19:48:26.235Z,10.30
2023-04-28T19:50:54.150Z,7.93
2023-04-28T19:53:21.613Z,8.90
2023-04-28T19:55:48.772Z,6.00
2023-04-28T19:58:16.211Z,12.57
2023-04-28T20:00:43.565Z,11.93
2023-04-28T20:03:10.777Z,6.33
2023-04-28T20:05:38.983Z,6.83
2023-04-28T20:08:06.141Z,5.80
2023-04-28T20:10:33.292Z,4.40
2023-04-28T20:13:00.403Z,4.10
2023-04-28T20:15:27.660Z,5.50
2023-04-28T20:17:55.357Z,5.97
2023-04-28T20:20:22.726Z,5.20
2023-04-28T20:22:50.724Z,4.20
2023-04-28T20:25:18.025Z,4.27
2023-04-28T20:27:46.865Z,5.47
2023-04-28T20:30:14.447Z,6.67
2023-04-28T20:32:41.610Z,6.77
2023-04-28T20:35:09.008Z,9.03
2023-04-28T20:37:36.166Z,9.53
2023-04-28T20:40:04.654Z,10.73
2023-04-28T20:42:33.161Z,7.40
2023-04-28T20:45:00.380Z,7.37
2023-04-28T20:47:32.028Z,9.70
2023-04-28T20:49:59.209Z,8.00
2023-04-28T20:52:27.190Z,5.73
2023-04-28T20:54:57.162Z,5.70
2023-04-28T20:57:24.301Z,6.60
2023-04-28T20:59:52.105Z,6.10
2023-04-28T21:02:19.409Z,9.67
2023-04-28T21:04:46.629Z,9.37
2023-04-28T21:07:13.783Z,9.03
2023-04-28T21:09:42.188Z,6.60
2023-04-28T21:12:09.702Z,6.20
2023-04-28T21:14:36.904Z,7.00
2023-04-28T21:17:04.454Z,6.67
2023-04-28T21:19:32.141Z,5.93
2023-04-28T21:21:59.534Z,6.60
2023-04-28T21:24:26.817Z,6.40
2023-04-28T21:26:53.929Z,6.00
2023-04-28T21:29:21.103Z,6.30
2023-04-28T21:31:48.342Z,6.20
2023-04-28T21:34:15.511Z,6.00
2023-04-28T21:36:42.824Z,6.13
2023-04-28T21:39:10.343Z,6.47
2023-04-28T21:41:38.312Z,6.53
2023-04-28T21:44:06.072Z,6.80
2023-04-28T21:46:34.189Z,6.87
2023-04-28T21:49:01.505Z,6.63
2023-04-28T21:51:28.675Z,6.53
2023-04-28T21:53:55.839Z,6.77
2023-04-28T21:56:22.967Z,6.43
2023-04-28T21:58:50.078Z,6.53
2023-04-28T22:01:18.074Z,7.30
2023-04-28T22:03:46.032Z,8.50
2023-04-28T22:06:13.799Z,9.10
2023-04-28T22:08:40.981Z,7.80
2023-04-28T22:11:08.115Z,7.53
2023-04-28T22:13:35.736Z,7.00
2023-04-28T22:16:02.950Z,6.97
2023-04-28T22:18:30.141Z,7.90
2023-04-28T22:20:57.280Z,7.53
2023-04-28T22:23:24.382Z,7.80
2023-04-28T22:25:51.590Z,7.93
2023-04-28T22:28:18.934Z,7.87
2023-04-28T22:30:47.601Z,7.97
2023-04-28T22:33:15.147Z,8.33
2023-04-28T22:35:42.345Z,8.00
2023-04-28T22:38:09.522Z,8.03
2023-04-28T22:40:36.647Z,8.10
2023-04-28T22:43:03.884Z,8.50
2023-04-28T22:45:31.039Z,8.93
2023-04-28T22:47:58.258Z,10.00
2023-04-28T22:50:25.429Z,9.77
2023-04-28T22:52:52.572Z,9.03
2023-04-28T22:55:19.819Z,9.60
2023-04-28T22:57:47.675Z,9.47
2023-04-28T23:00:16.140Z,8.90
2023-04-28T23:02:43.460Z,8.47
2023-04-28T23:05:10.808Z,8.27
2023-04-28T23:07:37.959Z,7.80
2023-04-28T23:10:05.240Z,8.17
2023-04-28T23:12:32.369Z,9.17
2023-04-28T23:14:59.494Z,8.60
2023-04-28T23:17:26.675Z,9.00
2023-04-28T23:19:53.832Z,9.17
2023-04-28T23:22:21.030Z,8.67
2023-04-28T23:24:48.103Z,8.87
2023-04-28T23:27:15.415Z,8.23
2023-04-28T23:29:42.516Z,8.97
2023-04-28T23:32:09.652Z,7.90
2023-04-28T23:34:38.264Z,7.53
2023-04-28T23:37:05.517Z,8.07
2023-04-28T23:39:32.739Z,7.83
2023-04-28T23:41:59.934Z,8.93
2023-04-28T23:44:27.083Z,8.83
2023-04-28T23:46:56.021Z,8.80
2023-04-28T23:49:23.780Z,8.47
2023-04-28T23:51:51.024Z,8.23
2023-04-28T23:54:18.177Z,8.37
2023-04-28T23:56:45.391Z,8.77
2023-04-28T23:59:12.596Z,8.40
